Time;durP1;ratioP1;P1;durP2;ratioP2;P2;SDS_P1;SDS_P2;PMS_P1;PMS_P2;Temp;Humidity;BMP_temperature;BMP_pressure;BME280_temperature;BME280_humidity;BME280_pressure;Samples;Min_cycle;Max_cycle;Signal;HPM_P1;HPM_P2
2023/05/03 00:01:09;;;;;;;;;;;;;;;7.59;64.01;102858.84;5060154;28;20282;-66
2023/05/03 00:03:34;;;;;;;;;;;;;;;7.56;64.28;102851.97;5059942;28;19926;-65
2023/05/03 00:06:12;;;;;;;;;;;;;;;7.55;64.19;102860.88;5064846;28;19916;-66
2023/05/03 00:08:38;;;;;;;;;;;;;;;7.52;64.21;102855.78;5069999;28;20022;-66
2023/05/03 00:11:03;;;;;;;;;;;;;;;7.49;64.27;102863.88;5059346;28;19943;-66
2023/05/03 00:13:28;;;;;;;;;;;;;;;7.45;64.31;102851.81;5059702;28;20406;-66
2023/05/03 00:15:53;;;;;;;;;;;;;;;7.43;64.05;102849.28;5065578;28;19916;-66
2023/05/03 00:18:18;;;;;;;;;;;;;;;7.41;63.83;102856.47;5058743;28;20394;-66
2023/05/03 00:20:43;;;;;;;;;;;;;;;7.39;64.20;102855.72;5060520;28;20007;-66
2023/05/03 00:23:09;;;;;;;;;;;;;;;7.38;64.39;102855.81;5070728;28;19913;-66
2023/05/03 00:25:34;;;;;;;;;;;;;;;7.37;64.22;102854.13;5066241;28;20011;-66
2023/05/03 00:27:59;;;;;;;;;;;;;;;7.34;63.93;102854.34;5067969;28;19924;-66
2023/05/03 00:30:24;;;;;;;;;;;;;;;7.31;64.02;102849.25;5064437;28;19920;-66
2023/05/03 00:32:50;;;;;;;;;;;;;;;7.27;63.90;102847.75;5067592;28;19916;-66
2023/05/03 00:35:15;;;;;;;;;;;;;;;7.23;64.13;102854.16;5065452;28;19920;-65
2023/05/03 00:37:40;;;;;;;;;;;;;;;7.20;63.81;102854.38;5060326;28;19921;-66
2023/05/03 00:40:06;;;;;;;;;;;;;;;7.17;63.98;102855.41;5066823;28;19923;-66
2023/05/03 00:42:32;;;;;;;;;;;;;;;7.13;63.97;102853.91;5069653;28;20477;-65
2023/05/03 00:44:57;;;;;;;;;;;;;;;7.09;64.02;102853.28;5057198;28;19943;-66
2023/05/03 00:47:23;;;;;;;;;;;;;;;7.05;64.06;102857.06;5062412;28;20301;-66
2023/05/03 00:49:48;;;;;;;;;;;;;;;7.02;64.06;102864.34;5063813;28;20003;-65
2023/05/03 00:52:15;;;;;;;;;;;;;;;6.98;64.38;102852.28;5064294;28;19958;-66
2023/05/03 00:54:40;;;;;;;;;;;;;;;6.93;64.72;102855.19;5065150;28;19923;-67
2023/05/03 00:57:06;;;;;;;;;;;;;;;6.90;64.79;102849.25;5062574;28;19917;-67
2023/05/03 00:59:32;;;;;;;;;;;;;;;6.85;65.15;102854.81;5059179;28;19925;-66
2023/05/03 01:01:57;;;;;;;;;;;;;;;6.82;65.22;102847.94;5065898;28;19920;-66
2023/05/03 01:04:22;;;;;;;;;;;;;;;6.81;65.47;102848.03;5065731;28;19920;-66
2023/05/03 01:07:09;;;;;;;;;;;;;;;6.80;65.51;102846.34;5066624;28;19920;-67
2023/05/03 01:09:41;;;;;;;;;;;;;;;6.79;65.45;102842.03;5055292;28;19920;-66
2023/05/03 01:12:10;;;;;;;;;;;;;;;6.79;65.53;102850.78;5067223;28;19920;-66
2023/05/03 01:14:54;;;;;;;;;;;;;;;6.77;65.18;102843.91;5064182;28;19916;-66
2023/05/03 01:17:24;;;;;;;;;;;;;;;6.75;65.60;102845.81;5057546;28;19964;-66
2023/05/03 01:19:56;;;;;;;;;;;;;;;6.70;65.96;102848.72;5058322;28;19923;-66
2023/05/03 01:22:32;;;;;;;;;;;;;;;6.68;66.01;102849.78;5053727;28;19917;-66
2023/05/03 01:25:07;;;;;;;;;;;;;;;6.64;66.50;102854.38;5058208;28;20312;-65
2023/05/03 01:27:32;;;;;;;;;;;;;;;6.62;66.53;102863.34;5063722;28;19956;-67
2023/05/03 01:29:57;;;;;;;;;;;;;;;6.60;66.38;102857.31;5063283;28;19964;-66
2023/05/03 01:32:38;;;;;;;;;;;;;;;6.57;66.55;102866.25;5064909;28;19924;-66
2023/05/03 01:35:06;;;;;;;;;;;;;;;6.53;67.24;102865.59;5053024;28;19920;-66
2023/05/03 01:37:31;;;;;;;;;;;;;;;6.51;67.27;102861.38;5065648;28;19978;-66
2023/05/03 01:39:58;;;;;;;;;;;;;;;6.46;67.00;102856.38;5069679;28;19917;-66
2023/05/03 01:42:24;;;;;;;;;;;;;;;6.47;67.41;102859.88;5067925;28;19920;-66
2023/05/03 01:44:51;;;;;;;;;;;;;;;6.44;67.34;102860.06;5055541;28;19923;-66
2023/05/03 01:47:16;;;;;;;;;;;;;;;6.44;67.37;102858.25;5060612;28;19920;-65
2023/05/03 01:49:41;;;;;;;;;;;;;;;6.46;67.56;102852.88;5062874;28;20820;-66
2023/05/03 01:52:07;;;;;;;;;;;;;;;6.46;67.77;102855.53;5069569;28;19940;-66
2023/05/03 01:54:32;;;;;;;;;;;;;;;6.47;67.78;102855.44;5065424;28;20278;-66
2023/05/03 01:56:57;;;;;;;;;;;;;;;6.47;67.60;102854.59;5067516;28;19959;-66
2023/05/03 01:59:22;;;;;;;;;;;;;;;6.48;67.92;102857.13;5063638;28;19917;-66
2023/05/03 02:01:48;;;;;;;;;;;;;;;6.48;68.01;102857.13;5061933;28;19920;-66
2023/05/03 02:04:13;;;;;;;;;;;;;;;6.47;68.24;102860.72;5061255;28;20386;-66
2023/05/03 02:06:38;;;;;;;;;;;;;;;6.46;68.05;102858.16;5056240;28;19920;-66
2023/05/03 02:09:03;;;;;;;;;;;;;;;6.44;68.01;102852.13;5059212;28;20541;-66
2023/05/03 02:11:28;;;;;;;;;;;;;;;6.44;68.01;102855.63;5053978;28;19917;-66
2023/05/03 02:13:53;;;;;;;;;;;;;;;6.44;67.67;102857.41;5065903;28;20464;-66
2023/05/03 02:16:19;;;;;;;;;;;;;;;6.41;67.64;102853.19;5059470;28;19917;-66
2023/05/03 02:18:45;;;;;;;;;;;;;;;6.39;67.90;102848.94;5060670;28;19935;-66
2023/05/03 02:21:11;;;;;;;;;;;;;;;6.36;68.17;102843.81;5056451;28;19966;-66
2023/05/03 02:23:37;;;;;;;;;;;;;;;6.33;67.92;102849.28;5049544;28;19917;-66
2023/05/03 02:26:02;;;;;;;;;;;;;;;6.30;68.14;102842.41;5064946;28;20430;-66
2023/05/03 02:28:27;;;;;;;;;;;;;;;6.30;68.54;102841.56;5058649;28;19920;-66
2023/05/03 02:30:52;;;;;;;;;;;;;;;6.29;68.61;102835.44;5065462;28;19917;-66
2023/05/03 02:33:18;;;;;;;;;;;;;;;6.29;68.80;102835.44;5067972;28;20399;-65
2023/05/03 02:35:43;;;;;;;;;;;;;;;6.27;68.69;102823.28;5054273;28;19920;-66
2023/05/03 02:38:08;;;;;;;;;;;;;;;6.23;68.84;102825.28;5053867;28;19928;-66
2023/05/03 02:40:33;;;;;;;;;;;;;;;6.18;69.02;102815.00;5058970;28;20341;-65
2023/05/03 02:42:59;;;;;;;;;;;;;;;6.15;69.02;102814.34;5064812;28;19923;-66
2023/05/03 02:45:24;;;;;;;;;;;;;;;6.08;69.00;102797.19;5061882;28;19920;-66
2023/05/03 02:47:49;;;;;;;;;;;;;;;6.04;68.87;102804.41;5061467;28;19923;-65
2023/05/03 02:50:15;;;;;;;;;;;;;;;6.00;68.89;102797.63;5062073;28;20010;-66
2023/05/03 02:52:40;;;;;;;;;;;;;;;5.95;69.02;102796.22;5061572;28;20275;-68
2023/05/03 02:55:05;;;;;;;;;;;;;;;5.92;69.31;102789.34;5057690;28;19917;-66
2023/05/03 02:57:30;;;;;;;;;;;;;;;5.89;69.21;102792.16;5066726;28;19928;-66
2023/05/03 02:59:56;;;;;;;;;;;;;;;5.86;69.16;102787.91;5063974;28;20105;-65
2023/05/03 03:02:21;;;;;;;;;;;;;;;5.85;69.35;102788.84;5060861;28;20374;-66
2023/05/03 03:04:46;;;;;;;;;;;;;;;5.83;69.23;102805.69;5066713;28;19922;-65
2023/05/03 03:07:12;;;;;;;;;;;;;;;5.82;69.33;102807.50;5058099;28;19952;-66
2023/05/03 03:09:37;;;;;;;;;;;;;;;5.80;69.63;102813.78;5056600;28;20309;-67
2023/05/03 03:12:02;;;;;;;;;;;;;;;5.77;69.55;102820.06;5062206;28;19923;-66
2023/05/03 03:14:28;;;;;;;;;;;;;;;5.74;69.29;102822.91;5058485;28;19917;-66
2023/05/03 03:16:53;;;;;;;;;;;;;;;5.72;69.35;102816.00;5058053;28;20173;-65
2023/05/03 03:19:18;;;;;;;;;;;;;;;5.68;69.51;102820.63;5071624;28;20378;-65
2023/05/03 03:21:43;;;;;;;;;;;;;;;5.65;69.79;102825.22;5059594;28;19921;-65
2023/05/03 03:24:08;;;;;;;;;;;;;;;5.62;69.54;102834.16;5066682;28;20430;-65
2023/05/03 03:26:34;;;;;;;;;;;;;;;5.60;69.57;102834.25;5059475;28;19932;-65
2023/05/03 03:28:59;;;;;;;;;;;;;;;5.58;69.69;102828.22;5058292;28;20371;-66
2023/05/03 03:31:24;;;;;;;;;;;;;;;5.57;69.73;102823.06;5062136;28;20476;-66
2023/05/03 03:33:50;;;;;;;;;;;;;;;5.54;70.09;102824.09;5059921;28;19913;-65
2023/05/03 03:36:15;;;;;;;;;;;;;;;5.48;70.10;102818.28;5060831;28;20396;-65
2023/05/03 03:38:40;;;;;;;;;;;;;;;5.45;70.41;102815.84;5066516;28;19930;-65
2023/05/03 03:41:06;;;;;;;;;;;;;;;5.45;70.52;102814.06;5070611;28;19969;-66
2023/05/03 03:43:31;;;;;;;;;;;;;;;5.44;70.72;102816.78;5060795;28;19924;-66
2023/05/03 03:45:57;;;;;;;;;;;;;;;5.44;70.69;102816.78;5071215;28;19920;-66
2023/05/03 03:48:22;;;;;;;;;;;;;;;5.45;70.78;102814.06;5069349;28;20250;-66
2023/05/03 03:50:47;;;;;;;;;;;;;;;5.44;70.56;102814.13;5070233;28;19913;-65
2023/05/03 03:53:13;;;;;;;;;;;;;;;5.42;70.77;102814.22;5065344;28;19924;-66
2023/05/03 03:55:38;;;;;;;;;;;;;;;5.40;70.64;102810.00;5063131;28;20061;-66
2023/05/03 03:58:04;;;;;;;;;;;;;;;5.36;70.70;102811.09;5062195;28;19920;-66
2023/05/03 04:00:29;;;;;;;;;;;;;;;5.34;70.71;102820.88;5067494;28;20465;-65
2023/05/03 04:02:54;;;;;;;;;;;;;;;5.31;70.77;102826.34;5063446;28;19923;-66
2023/05/03 04:05:19;;;;;;;;;;;;;;;5.28;70.74;102825.56;5070900;28;19920;-65
2023/05/03 04:07:44;;;;;;;;;;;;;;;5.25;70.68;102823.13;5067819;28;19912;-66
2023/05/03 04:10:10;;;;;;;;;;;;;;;5.20;70.77;102827.81;5054545;28;20468;-65
2023/05/03 04:12:35;;;;;;;;;;;;;;;5.20;70.71;102832.19;5060758;28;19916;-65
2023/05/03 04:15:01;;;;;;;;;;;;;;;5.20;70.71;102835.72;5066232;28;20003;-65
2023/05/03 04:17:28;;;;;;;;;;;;;;;5.21;70.46;102833.91;5056237;28;20724;-65
2023/05/03 04:19:53;;;;;;;;;;;;;;;5.15;70.65;102832.47;5066140;28;19913;-65
2023/05/03 04:22:18;;;;;;;;;;;;;;;5.11;70.31;102833.56;5064832;28;19923;-65
2023/05/03 04:24:44;;;;;;;;;;;;;;;5.10;70.78;102831.88;5058823;28;20332;-65
2023/05/03 04:27:10;;;;;;;;;;;;;;;5.10;70.99;102834.50;5059754;28;19970;-65
2023/05/03 04:29:36;;;;;;;;;;;;;;;5.10;71.12;102826.59;5064372;28;20342;-66
2023/05/03 04:32:02;;;;;;;;;;;;;;;5.11;71.59;102830.94;5062890;28;19925;-65
2023/05/03 04:34:29;;;;;;;;;;;;;;;5.12;71.80;102837.91;5068439;28;20019;-68
2023/05/03 04:36:54;;;;;;;;;;;;;;;5.12;71.86;102834.41;5070004;28;19916;-65
2023/05/03 04:39:20;;;;;;;;;;;;;;;5.12;71.94;102837.91;5060458;28;19924;-66
2023/05/03 04:41:46;;;;;;;;;;;;;;;5.13;72.07;102854.56;5065561;28;19924;-68
2023/05/03 04:44:11;;;;;;;;;;;;;;;5.15;72.18;102861.44;5064070;28;20001;-66
2023/05/03 04:46:36;;;;;;;;;;;;;;;5.19;72.25;102862.94;5066210;28;19956;-65
2023/05/03 04:49:01;;;;;;;;;;;;;;;5.22;72.40;102868.06;5068031;28;19920;-65
2023/05/03 04:51:27;;;;;;;;;;;;;;;5.27;72.40;102875.72;5065761;28;20432;-65
2023/05/03 04:53:52;;;;;;;;;;;;;;;5.31;72.53;102884.28;5064433;28;19916;-65
2023/05/03 04:56:19;;;;;;;;;;;;;;;5.34;72.84;102884.13;5069057;28;19912;-66
2023/05/03 04:58:44;;;;;;;;;;;;;;;5.38;72.98;102893.53;5069379;28;19968;-65
2023/05/03 05:01:10;;;;;;;;;;;;;;;5.45;73.42;102890.47;5063774;28;20346;-65
2023/05/03 05:03:35;;;;;;;;;;;;;;;5.56;73.63;102895.16;5060861;28;19920;-66
2023/05/03 05:06:01;;;;;;;;;;;;;;;5.68;73.76;102890.94;5057919;28;19939;-66
2023/05/03 05:08:26;;;;;;;;;;;;;;;5.80;73.92;102893.75;5063437;28;19991;-65
2023/05/03 05:10:51;;;;;;;;;;;;;;;5.89;73.83;102893.22;5057957;28;19958;-66
2023/05/03 05:13:16;;;;;;;;;;;;;;;5.99;73.76;102903.22;5061924;28;20386;-65
2023/05/03 05:15:41;;;;;;;;;;;;;;;6.06;73.66;102899.28;5056817;28;19960;-65
2023/05/03 05:18:08;;;;;;;;;;;;;;;6.14;74.24;102899.69;5063424;28;19921;-66
2023/05/03 05:20:33;;;;;;;;;;;;;;;6.22;74.35;102890.38;5062399;28;20339;-66
2023/05/03 05:22:58;;;;;;;;;;;;;;;6.28;74.10;102891.78;5059115;28;20389;-65
2023/05/03 05:25:23;;;;;;;;;;;;;;;6.35;74.20;102890.47;5060605;28;19917;-66
2023/05/03 05:27:48;;;;;;;;;;;;;;;6.41;74.55;102891.91;5056145;28;20424;-66
2023/05/03 05:30:14;;;;;;;;;;;;;;;6.51;74.63;102896.53;5057757;28;19917;-65
2023/05/03 05:32:39;;;;;;;;;;;;;;;6.62;74.55;102895.84;5058738;28;19924;-65
2023/05/03 05:35:04;;;;;;;;;;;;;;;6.72;74.26;102909.38;5069092;28;19916;-65
2023/05/03 05:37:29;;;;;;;;;;;;;;;6.80;74.28;102897.38;5064494;28;20037;-66
2023/05/03 05:39:54;;;;;;;;;;;;;;;6.88;73.93;102896.88;5052204;28;20430;-65
2023/05/03 05:42:20;;;;;;;;;;;;;;;6.96;74.22;102902.56;5067351;28;19923;-66
2023/05/03 05:44:45;;;;;;;;;;;;;;;7.04;74.04;102896.78;5067495;28;19979;-65
2023/05/03 05:47:10;;;;;;;;;;;;;;;7.11;73.99;102895.44;5058769;28;19921;-65
2023/05/03 05:49:36;;;;;;;;;;;;;;;7.17;73.62;102904.78;5066905;28;19917;-69
2023/05/03 05:52:01;;;;;;;;;;;;;;;7.24;73.55;102900.81;5068698;28;19917;-65
2023/05/03 05:54:26;;;;;;;;;;;;;;;7.29;73.43;102904.84;5060750;28;19923;-66
2023/05/03 05:56:52;;;;;;;;;;;;;;;7.34;73.09;102908.03;5059879;28;20026;-66
2023/05/03 05:59:17;;;;;;;;;;;;;;;7.38;72.96;102898.97;5055556;28;20307;-66
2023/05/03 06:01:44;;;;;;;;;;;;;;;7.42;72.83;102908.38;5061737;28;19918;-66
2023/05/03 06:04:10;;;;;;;;;;;;;;;7.47;72.98;102903.63;5059414;28;19970;-66
2023/05/03 06:06:35;;;;;;;;;;;;;;;7.53;72.56;102910.34;5067001;28;19928;-66
2023/05/03 06:09:01;;;;;;;;;;;;;;;7.59;72.38;102898.53;5065124;28;20007;-66
2023/05/03 06:11:26;;;;;;;;;;;;;;;7.62;72.04;102904.44;5067972;28;19918;-66
2023/05/03 06:13:51;;;;;;;;;;;;;;;7.65;72.04;102906.88;5069007;28;19924;-66
2023/05/03 06:16:16;;;;;;;;;;;;;;;7.69;71.91;102892.50;5060761;28;19920;-66
2023/05/03 06:18:42;;;;;;;;;;;;;;;7.72;71.57;102891.47;5059958;28;19928;-66
2023/05/03 06:21:08;;;;;;;;;;;;;;;7.75;71.47;102886.81;5062198;28;19912;-66
2023/05/03 06:23:34;;;;;;;;;;;;;;;7.81;71.26;102887.38;5062473;28;20019;-66
2023/05/03 06:25:59;;;;;;;;;;;;;;;7.87;70.90;102892.25;5060621;28;20553;-66
2023/05/03 06:28:24;;;;;;;;;;;;;;;7.94;70.80;102883.78;5059256;28;19974;-66
2023/05/03 06:30:49;;;;;;;;;;;;;;;7.96;70.38;102900.41;5058982;28;20011;-66
2023/05/03 06:33:15;;;;;;;;;;;;;;;7.98;70.32;102895.00;5063152;28;19916;-66
2023/05/03 06:35:40;;;;;;;;;;;;;;;8.04;70.19;102891.94;5065703;28;19912;-67
2023/05/03 06:38:05;;;;;;;;;;;;;;;8.07;69.82;102881.16;5063638;28;19920;-66
2023/05/03 06:40:31;;;;;;;;;;;;;;;8.12;69.80;102884.38;5066184;28;20345;-66
2023/05/03 06:42:56;;;;;;;;;;;;;;;8.23;70.47;102876.53;5066073;28;20014;-66
2023/05/03 06:45:21;;;;;;;;;;;;;;;8.33;70.25;102880.25;5067820;28;19927;-66
2023/05/03 06:47:46;;;;;;;;;;;;;;;8.38;69.97;102879.94;5066593;28;19936;-66
2023/05/03 06:50:12;;;;;;;;;;;;;;;8.48;69.69;102870.41;5066298;28;19920;-66
2023/05/03 06:52:37;;;;;;;;;;;;;;;8.57;69.50;102883.00;5066476;28;19917;-66
2023/05/03 06:55:03;;;;;;;;;;;;;;;8.63;69.41;102882.56;5062608;28;19917;-68
2023/05/03 06:57:28;;;;;;;;;;;;;;;8.71;69.14;102876.75;5060812;28;19924;-65
2023/05/03 06:59:54;;;;;;;;;;;;;;;8.79;69.09;102871.75;5066384;28;20007;-66
2023/05/03 07:02:20;;;;;;;;;;;;;;;8.84;68.46;102868.75;5062170;28;20377;-66
2023/05/03 07:04:45;;;;;;;;;;;;;;;8.92;68.56;102882.31;5060012;28;19925;-66
2023/05/03 07:07:10;;;;;;;;;;;;;;;9.00;68.25;102877.31;5066036;28;19924;-66
2023/05/03 07:09:35;;;;;;;;;;;;;;;9.05;67.48;102874.34;5056877;28;19924;-67
2023/05/03 07:12:02;;;;;;;;;;;;;;;9.00;66.81;102882.63;5064669;28;19917;-66
2023/05/03 07:14:27;;;;;;;;;;;;;;;8.99;67.49;102878.28;5062586;28;20497;-66
2023/05/03 07:16:52;;;;;;;;;;;;;;;9.10;67.95;102878.34;5056434;28;19921;-66
2023/05/03 07:19:17;;;;;;;;;;;;;;;9.23;67.27;102881.78;5065067;28;20010;-66
2023/05/03 07:21:43;;;;;;;;;;;;;;;9.26;66.69;102876.28;5059137;28;20294;-66
2023/05/03 07:24:11;;;;;;;;;;;;;;;9.30;66.38;102884.84;5059025;28;19963;-66
2023/05/03 07:26:36;;;;;;;;;;;;;;;9.37;65.45;102866.69;5065926;28;20432;-66
2023/05/03 07:29:01;;;;;;;;;;;;;;;9.40;65.11;102864.66;5062877;28;19959;-66
2023/05/03 07:31:27;;;;;;;;;;;;;;;9.45;64.95;102864.31;5063579;28;20370;-66
2023/05/03 07:33:52;;;;;;;;;;;;;;;9.49;63.97;102868.41;5062413;28;19917;-66
2023/05/03 07:36:17;;;;;;;;;;;;;;;9.45;62.84;102867.81;5061526;28;19917;-66
2023/05/03 07:38:42;;;;;;;;;;;;;;;9.51;63.17;102856.72;5057342;28;19923;-66
2023/05/03 07:41:08;;;;;;;;;;;;;;;9.53;62.82;102860.13;5066926;28;19956;-66
2023/05/03 07:43:33;;;;;;;;;;;;;;;9.55;63.37;102860.88;5062428;28;19935;-66
2023/05/03 07:45:58;;;;;;;;;;;;;;;9.66;63.23;102859.22;5064786;28;20768;-66
2023/05/03 07:48:23;;;;;;;;;;;;;;;9.73;62.84;102847.19;5067771;28;19959;-66
2023/05/03 07:50:48;;;;;;;;;;;;;;;9.74;62.31;102840.91;5066377;28;19948;-66
2023/05/03 07:53:14;;;;;;;;;;;;;;;9.79;62.07;102844.06;5067928;28;20332;-66
2023/05/03 07:55:39;;;;;;;;;;;;;;;9.85;62.05;102830.34;5065827;28;19912;-66
2023/05/03 07:58:04;;;;;;;;;;;;;;;9.99;62.28;102831.94;5060787;28;20695;-66
2023/05/03 08:00:30;;;;;;;;;;;;;;;10.11;62.58;102826.50;5068265;28;19912;-66
2023/05/03 08:02:55;;;;;;;;;;;;;;;10.19;61.69;102824.13;5070512;28;19956;-66
2023/05/03 08:05:20;;;;;;;;;;;;;;;10.24;61.33;102823.78;5069928;28;19974;-66
2023/05/03 08:07:45;;;;;;;;;;;;;;;10.23;60.61;102817.63;5070069;28;19921;-66
2023/05/03 08:10:11;;;;;;;;;;;;;;;10.17;60.41;102815.44;5069137;28;19923;-66
2023/05/03 08:12:37;;;;;;;;;;;;;;;10.13;60.21;102816.63;5072463;28;19921;-66
2023/05/03 08:15:05;;;;;;;;;;;;;;;10.11;59.85;102813.22;5071280;28;19916;-66
2023/05/03 08:17:31;;;;;;;;;;;;;;;10.12;59.84;102809.63;5062010;28;20377;-66
2023/05/03 08:19:57;;;;;;;;;;;;;;;10.15;59.54;102814.72;5068767;28;21377;-66
2023/05/03 08:22:25;;;;;;;;;;;;;;;10.20;59.28;102825.84;5071032;28;19913;-66
2023/05/03 08:24:52;;;;;;;;;;;;;;;10.17;59.14;102825.22;5068910;28;20523;-66
2023/05/03 08:27:18;;;;;;;;;;;;;;;10.20;59.05;102814.34;5069231;28;19928;-67
2023/05/03 08:29:43;;;;;;;;;;;;;;;10.24;59.26;102815.81;5070025;28;19916;-67
2023/05/03 08:32:09;;;;;;;;;;;;;;;10.27;58.93;102812.09;5071067;28;20003;-66
2023/05/03 08:34:35;;;;;;;;;;;;;;;10.31;58.95;102811.72;5068916;28;20435;-66
2023/05/03 08:37:01;;;;;;;;;;;;;;;10.31;58.84;102814.38;5069664;28;19917;-66
2023/05/03 08:39:26;;;;;;;;;;;;;;;10.35;58.88;102814.97;5069561;28;20011;-66
2023/05/03 08:41:54;;;;;;;;;;;;;;;10.46;58.72;102799.91;5054010;28;19921;-66
2023/05/03 08:44:24;;;;;;;;;;;;;;;10.52;58.75;102806.53;5069762;28;19913;-67
2023/05/03 08:46:50;;;;;;;;;;;;;;;10.55;58.29;102807.13;5069655;28;19917;-66
2023/05/03 08:49:16;;;;;;;;;;;;;;;10.59;57.71;102802.41;5066437;28;19962;-67
2023/05/03 08:51:42;;;;;;;;;;;;;;;10.63;57.74;102801.19;5065113;28;20058;-66
2023/05/03 08:54:07;;;;;;;;;;;;;;;10.75;57.79;102813.50;5067169;28;19970;-66
2023/05/03 08:56:35;;;;;;;;;;;;;;;10.88;57.53;102820.47;5062148;28;20306;-66
2023/05/03 08:59:06;;;;;;;;;;;;;;;11.01;57.88;102827.34;5063692;28;20026;-66
2023/05/03 09:01:32;;;;;;;;;;;;;;;11.17;58.03;102819.81;5058197;28;19924;-66
2023/05/03 09:03:57;;;;;;;;;;;;;;;11.40;58.32;102825.88;5066972;28;19923;-66
2023/05/03 09:06:25;;;;;;;;;;;;;;;11.57;57.55;102826.31;5068651;28;19917;-66
2023/05/03 09:08:50;;;;;;;;;;;;;;;11.66;57.38;102817.53;5067010;28;20295;-66
2023/05/03 09:11:35;;;;;;;;;;;;;;;11.74;56.92;102813.25;5051702;28;20375;-66
2023/05/03 09:14:10;;;;;;;;;;;;;;;11.91;57.11;102817.19;5059646;28;19921;-66
2023/05/03 09:16:36;;;;;;;;;;;;;;;12.09;56.99;102820.91;5057569;28;19917;-66
2023/05/03 09:19:03;;;;;;;;;;;;;;;12.17;55.66;102830.94;5070361;28;19917;-66
2023/05/03 09:21:30;;;;;;;;;;;;;;;12.14;55.37;102827.66;5069417;28;20447;-66
2023/05/03 09:23:55;;;;;;;;;;;;;;;12.14;55.04;102825.84;5061824;28;19982;-66
2023/05/03 09:26:27;;;;;;;;;;;;;;;12.23;54.74;102808.25;5052002;28;19971;-66
2023/05/03 09:28:53;;;;;;;;;;;;;;;12.37;54.64;102821.19;5067771;28;19923;-66
2023/05/03 09:31:18;;;;;;;;;;;;;;;12.46;54.62;102825.75;5060914;28;19920;-66
2023/05/03 09:33:43;;;;;;;;;;;;;;;12.65;54.67;102812.47;5061733;28;19928;-66
2023/05/03 09:36:10;;;;;;;;;;;;;;;12.86;54.33;102811.53;5054302;28;20011;-66
2023/05/03 09:38:35;;;;;;;;;;;;;;;13.08;53.60;102810.47;5060808;28;20038;-66
2023/05/03 09:41:01;;;;;;;;;;;;;;;13.28;53.36;102807.69;5064874;28;20370;-66
2023/05/03 09:43:26;;;;;;;;;;;;;;;13.46;53.62;102812.34;5058974;28;19913;-67
2023/05/03 09:45:51;;;;;;;;;;;;;;;13.49;52.36;102798.69;5061689;28;19923;-66
2023/05/03 09:48:21;;;;;;;;;;;;;;;13.40;52.27;102804.91;5064452;28;19924;-66
2023/05/03 09:50:46;;;;;;;;;;;;;;;13.23;53.24;102809.09;5068026;28;19943;-66
2023/05/03 09:53:13;;;;;;;;;;;;;;;13.14;53.07;102799.22;5063063;28;20345;-66
2023/05/03 09:55:39;;;;;;;;;;;;;;;13.29;52.89;102798.69;5065985;28;19994;-66
2023/05/03 09:58:05;;;;;;;;;;;;;;;13.50;52.11;102795.03;5063453;28;20532;-67
2023/05/03 10:00:33;;;;;;;;;;;;;;;13.62;51.97;102804.59;5067128;28;19916;-67
2023/05/03 10:03:00;;;;;;;;;;;;;;;13.61;51.23;102813.59;5066535;28;20011;-66
2023/05/03 10:05:26;;;;;;;;;;;;;;;13.71;51.04;102809.06;5062188;28;19955;-67
2023/05/03 10:07:52;;;;;;;;;;;;;;;13.76;51.41;102804.16;5064284;28;20016;-67
2023/05/03 10:10:18;;;;;;;;;;;;;;;13.81;51.17;102803.72;5059789;28;19923;-66
2023/05/03 10:12:44;;;;;;;;;;;;;;;13.74;50.78;102799.94;5069924;28;19920;-66
2023/05/03 10:15:10;;;;;;;;;;;;;;;13.80;51.28;102808.22;5053705;28;19964;-66
2023/05/03 10:17:37;;;;;;;;;;;;;;;13.83;51.16;102794.56;5056413;28;19921;-67
2023/05/03 10:20:14;;;;;;;;;;;;;;;13.79;50.84;102790.50;5058641;28;20012;-66
2023/05/03 10:22:58;;;;;;;;;;;;;;;13.86;51.09;102802.28;5063159;28;20296;-66
2023/05/03 10:25:23;;;;;;;;;;;;;;;14.16;51.24;102798.53;5050275;28;20011;-66
2023/05/03 10:27:50;;;;;;;;;;;;;;;14.38;50.91;102802.69;5052626;28;20023;-67
2023/05/03 10:30:24;;;;;;;;;;;;;;;14.51;50.28;102807.75;5062845;28;19939;-66
2023/05/03 10:32:50;;;;;;;;;;;;;;;14.71;50.50;102806.63;5059126;28;20290;-66
2023/05/03 10:35:16;;;;;;;;;;;;;;;14.97;49.65;102797.88;5053609;28;19924;-66
2023/05/03 10:37:41;;;;;;;;;;;;;;;15.06;48.91;102803.19;5056073;28;19921;-67
2023/05/03 10:40:10;;;;;;;;;;;;;;;15.05;48.95;102806.84;5067821;28;20392;-66
2023/05/03 10:42:36;;;;;;;;;;;;;;;15.06;47.87;102792.47;5067171;28;19917;-67
2023/05/03 10:45:02;;;;;;;;;;;;;;;15.10;48.02;102799.22;5065972;28;19916;-66
2023/05/03 10:47:28;;;;;;;;;;;;;;;15.18;48.56;102793.91;5061735;28;19924;-66
2023/05/03 10:50:12;;;;;;;;;;;;;;;15.26;48.83;102797.66;5066840;28;19917;-66
2023/05/03 10:52:38;;;;;;;;;;;;;;;15.53;49.43;102788.69;5064261;28;20298;-67
2023/05/03 10:55:32;;;;;;;;;;;;;;;15.61;47.69;102797.69;5056184;28;19920;-67
2023/05/03 10:57:58;;;;;;;;;;;;;;;15.57;47.53;102790.06;5048275;28;19921;-67
2023/05/03 11:00:24;;;;;;;;;;;;;;;15.71;47.60;102792.22;5067287;28;19942;-67
2023/05/03 11:03:08;;;;;;;;;;;;;;;15.85;47.50;102788.13;5062185;28;19917;-67
2023/05/03 11:05:34;;;;;;;;;;;;;;;15.99;47.17;102787.56;5054547;28;19955;-67
2023/05/03 11:08:08;;;;;;;;;;;;;;;16.14;46.86;102787.78;5062306;28;20581;-67
2023/05/03 11:10:33;;;;;;;;;;;;;;;16.32;46.35;102783.19;5053549;28;19920;-66
2023/05/03 11:12:58;;;;;;;;;;;;;;;16.36;45.61;102790.75;5062504;28;20496;-67
2023/05/03 11:15:24;;;;;;;;;;;;;;;16.30;45.50;102783.34;5062500;28;19931;-67
2023/05/03 11:17:49;;;;;;;;;;;;;;;16.41;45.55;102769.66;5063374;28;19929;-67
2023/05/03 11:20:15;;;;;;;;;;;;;;;16.53;45.00;102767.53;5055831;28;20381;-66
2023/05/03 11:22:40;;;;;;;;;;;;;;;16.60;44.99;102765.03;5061530;28;19924;-66
2023/05/03 11:25:05;;;;;;;;;;;;;;;16.73;44.82;102770.78;5062817;28;19917;-66
2023/05/03 11:27:30;;;;;;;;;;;;;;;16.78;44.68;102757.75;5053139;28;20010;-65
2023/05/03 11:29:58;;;;;;;;;;;;;;;16.80;45.65;102752.22;5057564;28;19923;-66
2023/05/03 11:32:27;;;;;;;;;;;;;;;16.58;44.19;102756.31;5059412;28;19928;-65
2023/05/03 11:34:52;;;;;;;;;;;;;;;16.38;43.89;102751.19;5058407;28;19919;-65
2023/05/03 11:37:17;;;;;;;;;;;;;;;16.19;43.67;102735.41;5064067;28;20314;-66
2023/05/03 11:39:42;;;;;;;;;;;;;;;16.05;44.49;102744.03;5067974;28;19994;-65
2023/05/03 11:42:07;;;;;;;;;;;;;;;16.12;44.88;102742.38;5072131;28;19948;-65
2023/05/03 11:44:33;;;;;;;;;;;;;;;16.24;45.30;102733.06;5071236;28;19939;-66
2023/05/03 11:46:58;;;;;;;;;;;;;;;16.35;45.49;102734.59;5067578;28;19940;-65
2023/05/03 11:49:23;;;;;;;;;;;;;;;16.38;45.71;102735.13;5069121;28;19920;-65
2023/05/03 11:51:49;;;;;;;;;;;;;;;16.29;44.77;102736.09;5069405;28;20115;-65
2023/05/03 11:54:15;;;;;;;;;;;;;;;16.37;45.29;102727.22;5062914;28;19921;-67
2023/05/03 11:56:40;;;;;;;;;;;;;;;16.48;44.74;102708.19;5068887;28;19927;-64
2023/05/03 11:59:05;;;;;;;;;;;;;;;16.53;44.37;102716.56;5071755;28;19919;-64
2023/05/03 12:01:30;;;;;;;;;;;;;;;16.56;44.08;102710.03;5067552;28;19918;-65
2023/05/03 12:04:00;;;;;;;;;;;;;;;16.58;44.15;102705.34;5069120;28;20555;-65
2023/05/03 12:06:30;;;;;;;;;;;;;;;16.54;43.97;102706.69;5066524;28;19919;-65
2023/05/03 12:08:56;;;;;;;;;;;;;;;16.54;43.74;102699.47;5070494;28;19920;-65
2023/05/03 12:11:21;;;;;;;;;;;;;;;16.56;45.19;102704.66;5066800;28;19962;-65
2023/05/03 12:13:54;;;;;;;;;;;;;;;16.72;44.50;102699.34;5072806;28;19916;-66
2023/05/03 12:16:21;;;;;;;;;;;;;;;16.67;44.23;102693.66;5063600;28;20494;-65
2023/05/03 12:18:50;;;;;;;;;;;;;;;16.67;44.89;102699.84;5065069;28;19924;-65
2023/05/03 12:21:16;;;;;;;;;;;;;;;16.81;44.30;102694.84;5068769;28;19947;-66
2023/05/03 12:23:42;;;;;;;;;;;;;;;16.85;44.11;102680.09;5070963;28;19912;-66
2023/05/03 12:26:07;;;;;;;;;;;;;;;16.95;43.95;102689.66;5066495;28;19924;-66
2023/05/03 12:28:35;;;;;;;;;;;;;;;17.19;44.10;102686.13;5059202;28;19929;-66
2023/05/03 12:31:00;;;;;;;;;;;;;;;17.29;43.16;102678.72;5064139;28;19970;-66
2023/05/03 12:33:25;;;;;;;;;;;;;;;17.25;43.05;102665.81;5070531;28;19963;-66
2023/05/03 12:35:51;;;;;;;;;;;;;;;17.12;43.13;102670.88;5068803;28;19928;-66
2023/05/03 12:38:16;;;;;;;;;;;;;;;17.23;43.48;102665.13;5066766;28;19942;-66